createdAt,value
2018-07-19T00:00:06.000Z,100621
2018-07-19T00:01:50.000Z,100617
2018-07-19T00:03:06.000Z,100617
2018-07-19T00:05:06.000Z,100619
2018-07-19T00:07:06.000Z,100620
2018-07-19T00:09:06.000Z,100624
2018-07-19T00:11:06.000Z,100622
2018-07-19T00:13:06.000Z,100623
2018-07-19T00:14:06.000Z,100618
2018-07-19T00:15:06.000Z,100625
2018-07-19T00:17:06.000Z,100628
2018-07-19T00:18:06.000Z,100623
2018-07-19T00:20:06.000Z,100632
2018-07-19T00:21:06.000Z,100633
2018-07-19T00:22:06.000Z,100635
2018-07-19T00:24:06.000Z,100628
2018-07-19T00:26:06.000Z,100625
2018-07-19T00:28:06.000Z,100624
2018-07-19T00:29:06.000Z,100626
2018-07-19T00:30:06.000Z,100631
2018-07-19T00:32:06.000Z,100621
2018-07-19T00:34:06.000Z,100632
2018-07-19T00:35:50.000Z,100628
2018-07-19T00:37:06.000Z,100625
2018-07-19T00:38:50.000Z,100620
2018-07-19T00:40:06.000Z,100624
2018-07-19T00:42:06.000Z,100620
2018-07-19T00:44:06.000Z,100622
2018-07-19T00:46:06.000Z,100624
2018-07-19T00:47:06.000Z,100625
2018-07-19T00:48:35.000Z,100632
2018-07-19T00:50:06.000Z,100630
2018-07-19T00:52:06.000Z,100629
2018-07-19T00:54:06.000Z,100632
2018-07-19T00:56:06.000Z,100627
2018-07-19T00:58:06.000Z,100624
2018-07-19T00:59:06.000Z,100624
2018-07-19T01:00:51.000Z,100624
2018-07-19T01:01:51.000Z,100619
2018-07-19T01:03:06.000Z,100621
2018-07-19T01:04:06.000Z,100622
2018-07-19T01:06:06.000Z,100623
2018-07-19T01:07:06.000Z,100624
2018-07-19T01:09:06.000Z,100624
2018-07-19T01:11:06.000Z,100629
2018-07-19T01:12:06.000Z,100625
2018-07-19T01:13:51.000Z,100622
2018-07-19T01:15:06.000Z,100621
2018-07-19T01:17:06.000Z,100619
2018-07-19T01:18:06.000Z,100627
2018-07-19T01:20:06.000Z,100619
2018-07-19T01:21:06.000Z,100612
2018-07-19T01:22:35.000Z,100614
2018-07-19T01:24:06.000Z,100612
2018-07-19T01:25:35.000Z,100608
2018-07-19T01:27:06.000Z,100618
2018-07-19T01:29:06.000Z,100613
2018-07-19T01:30:06.000Z,100612
2018-07-19T01:32:06.000Z,100615
2018-07-19T01:34:06.000Z,100613
2018-07-19T01:36:06.000Z,100615
2018-07-19T01:37:06.000Z,100612
2018-07-19T01:39:06.000Z,100608
2018-07-19T01:41:06.000Z,100608
2018-07-19T01:43:06.000Z,100608
2018-07-19T01:44:06.000Z,100611
2018-07-19T01:46:06.000Z,100608
2018-07-19T01:48:06.000Z,100611
2018-07-19T01:49:06.000Z,100611
2018-07-19T01:51:06.000Z,100613
2018-07-19T01:52:06.000Z,100612
2018-07-19T01:53:51.000Z,100610
2018-07-19T01:55:06.000Z,100614
2018-07-19T01:57:06.000Z,100610
2018-07-19T01:59:06.000Z,100609
2018-07-19T02:00:06.000Z,100609
2018-07-19T02:01:51.000Z,100608
2018-07-19T02:03:06.000Z,100613
2018-07-19T02:05:06.000Z,100617
2018-07-19T02:06:06.000Z,100614
2018-07-19T02:07:51.000Z,100618
2018-07-19T02:09:06.000Z,100618
2018-07-19T02:11:06.000Z,100621
2018-07-19T02:12:06.000Z,100617
2018-07-19T02:14:06.000Z,100618
2018-07-19T02:16:06.000Z,100619
2018-07-19T02:18:06.000Z,100624
2018-07-19T02:19:06.000Z,100622
2018-07-19T02:21:06.000Z,100625
2018-07-19T02:23:06.000Z,100625
2018-07-19T02:24:06.000Z,100631
2018-07-19T02:25:06.000Z,100630
2018-07-19T02:26:06.000Z,100625
2018-07-19T02:28:06.000Z,100626
2018-07-19T02:29:06.000Z,100623
2018-07-19T02:30:06.000Z,100626
2018-07-19T02:32:06.000Z,100625
2018-07-19T02:33:51.000Z,100621
2018-07-19T02:35:06.000Z,100625
2018-07-19T02:36:06.000Z,100622
2018-07-19T02:38:06.000Z,100619
2018-07-19T02:39:51.000Z,100624
2018-07-19T02:40:51.000Z,100623
2018-07-19T02:42:06.000Z,100622
2018-07-19T02:44:06.000Z,100628
2018-07-19T02:46:06.000Z,100625
2018-07-19T02:48:06.000Z,100621
2018-07-19T02:49:06.000Z,100625
2018-07-19T02:54:06.000Z,100625
2018-07-19T02:55:36.000Z,100621
2018-07-19T02:56:51.000Z,100622
2018-07-19T02:58:51.000Z,100622
2018-07-19T03:00:51.000Z,100624
2018-07-19T03:02:21.000Z,100622
2018-07-19T03:03:51.000Z,100625
2018-07-19T03:05:52.000Z,100623
2018-07-19T03:06:52.000Z,100628
2018-07-19T03:08:52.000Z,100621
2018-07-19T03:09:52.000Z,100619
2018-07-19T03:11:52.000Z,100622
2018-07-19T03:13:37.000Z,100620
2018-07-19T03:14:52.000Z,100619
2018-07-19T03:15:52.000Z,100615
2018-07-19T03:17:52.000Z,100618
2018-07-19T03:19:52.000Z,100618
2018-07-19T03:21:52.000Z,100615
2018-07-19T03:22:52.000Z,100617
2018-07-19T03:23:52.000Z,100615
2018-07-19T03:25:37.000Z,100617
2018-07-19T03:26:52.000Z,100619
2018-07-19T03:28:52.000Z,100609
2018-07-19T03:30:52.000Z,100613
2018-07-19T03:32:52.000Z,100608
2018-07-19T03:34:52.000Z,100609
2018-07-19T03:36:52.000Z,100608
2018-07-19T03:37:52.000Z,100612
2018-07-19T03:38:52.000Z,100614
2018-07-19T03:40:52.000Z,100611
2018-07-19T03:42:52.000Z,100612
2018-07-19T03:43:52.000Z,100609
2018-07-19T03:45:52.000Z,100613
2018-07-19T03:47:52.000Z,100613
2018-07-19T03:49:52.000Z,100612
2018-07-19T03:50:52.000Z,100611
2018-07-19T03:52:52.000Z,100608
2018-07-19T03:53:52.000Z,100612
2018-07-19T03:55:52.000Z,100614
2018-07-19T03:57:52.000Z,100610
2018-07-19T03:58:52.000Z,100615
2018-07-19T04:00:52.000Z,100616
2018-07-19T04:01:52.000Z,100615
2018-07-19T04:02:52.000Z,100615
2018-07-19T04:04:37.000Z,100616
2018-07-19T04:05:52.000Z,100616
2018-07-19T04:07:52.000Z,100617
2018-07-19T04:09:37.000Z,100609
2018-07-19T04:10:52.000Z,100612
2018-07-19T04:12:52.000Z,100615
2018-07-19T04:14:52.000Z,100614
2018-07-19T04:16:52.000Z,100619
2018-07-19T04:18:52.000Z,100619
2018-07-19T04:19:52.000Z,100615
2018-07-19T04:21:52.000Z,100621
2018-07-19T04:22:52.000Z,100614
2018-07-19T04:23:52.000Z,100616
2018-07-19T04:24:52.000Z,100614
2018-07-19T04:26:52.000Z,100612
2018-07-19T04:27:52.000Z,100615
2018-07-19T04:29:37.000Z,100616
2018-07-19T04:30:52.000Z,100613
2018-07-19T04:32:52.000Z,100620
2018-07-19T04:34:52.000Z,100616
2018-07-19T04:35:52.000Z,100621
2018-07-19T04:36:52.000Z,100614
2018-07-19T04:37:52.000Z,100622
2018-07-19T04:39:52.000Z,100622
2018-07-19T04:40:52.000Z,100617
2018-07-19T04:41:52.000Z,100615
2018-07-19T04:43:52.000Z,100615
2018-07-19T04:45:52.000Z,100612
2018-07-19T04:47:52.000Z,100621
2018-07-19T04:49:52.000Z,100615
2018-07-19T04:51:52.000Z,100622
2018-07-19T04:52:52.000Z,100623
2018-07-19T04:54:37.000Z,100624
2018-07-19T04:55:52.000Z,100625
2018-07-19T04:56:52.000Z,100626
2018-07-19T04:58:22.000Z,100626
2018-07-19T04:59:52.000Z,100629
2018-07-19T05:01:52.000Z,100631
2018-07-19T05:03:52.000Z,100631
2018-07-19T05:05:37.000Z,100628
2018-07-19T05:06:52.000Z,100635
2018-07-19T05:07:52.000Z,100636
2018-07-19T05:09:52.000Z,100632
2018-07-19T05:11:52.000Z,100630
2018-07-19T05:13:52.000Z,100633
2018-07-19T05:15:52.000Z,100633
2018-07-19T05:16:52.000Z,100635
2018-07-19T05:18:52.000Z,100634
2018-07-19T05:20:37.000Z,100630
2018-07-19T05:21:52.000Z,100637
2018-07-19T05:23:52.000Z,100634
2018-07-19T05:24:52.000Z,100633
2018-07-19T05:26:52.000Z,100633
2018-07-19T05:27:52.000Z,100628
2018-07-19T05:28:52.000Z,100625
2018-07-19T05:30:52.000Z,100630
2018-07-19T05:31:52.000Z,100631
2018-07-19T05:33:52.000Z,100629
2018-07-19T05:34:52.000Z,100632
2018-07-19T05:36:52.000Z,100631
2018-07-19T05:38:52.000Z,100631
2018-07-19T05:40:52.000Z,100632
2018-07-19T05:41:52.000Z,100631
2018-07-19T05:43:52.000Z,100636
2018-07-19T05:45:52.000Z,100642
2018-07-19T05:47:52.000Z,100636
2018-07-19T05:49:52.000Z,100640
2018-07-19T05:50:52.000Z,100633
2018-07-19T05:52:52.000Z,100626
2018-07-19T05:53:52.000Z,100632
2018-07-19T05:54:52.000Z,100633
2018-07-19T05:56:52.000Z,100632
2018-07-19T05:58:37.000Z,100636
2018-07-19T05:59:52.000Z,100634
2018-07-19T06:01:52.000Z,100630
2018-07-19T06:03:52.000Z,100630
2018-07-19T06:05:52.000Z,100629
2018-07-19T06:07:52.000Z,100630
2018-07-19T06:08:52.000Z,100625
2018-07-19T06:10:52.000Z,100631
2018-07-19T06:12:52.000Z,100636
2018-07-19T06:14:52.000Z,100634
2018-07-19T06:16:37.000Z,100629
2018-07-19T06:17:52.000Z,100634
2018-07-19T06:19:52.000Z,100626
2018-07-19T06:21:52.000Z,100627
2018-07-19T06:22:52.000Z,100630
2018-07-19T06:24:52.000Z,100630
2018-07-19T06:26:52.000Z,100636
2018-07-19T06:27:52.000Z,100632
2018-07-19T06:29:52.000Z,100637
2018-07-19T06:31:52.000Z,100633
2018-07-19T06:33:52.000Z,100633
2018-07-19T06:35:52.000Z,100639
2018-07-19T06:37:52.000Z,100629
2018-07-19T06:39:52.000Z,100627
2018-07-19T06:41:52.000Z,100628
2018-07-19T06:42:52.000Z,100628
2018-07-19T06:44:52.000Z,100637
2018-07-19T06:46:52.000Z,100635
2018-07-19T06:48:52.000Z,100642
2018-07-19T06:49:52.000Z,100640
2018-07-19T06:51:52.000Z,100638
2018-07-19T06:53:52.000Z,100647
2018-07-19T06:55:52.000Z,100643
2018-07-19T06:57:52.000Z,100646
2018-07-19T06:59:52.000Z,100648
2018-07-19T07:00:52.000Z,100652
2018-07-19T07:02:37.000Z,100651
2018-07-19T07:03:52.000Z,100646
2018-07-19T07:05:52.000Z,100645
2018-07-19T07:06:52.000Z,100647
2018-07-19T07:08:37.000Z,100640
2018-07-19T07:09:52.000Z,100645
2018-07-19T07:10:52.000Z,100646
2018-07-19T07:12:22.000Z,100644
2018-07-19T07:13:52.000Z,100646
2018-07-19T07:15:52.000Z,100649
2018-07-19T07:17:52.000Z,100649
2018-07-19T07:19:52.000Z,100647
2018-07-19T07:21:52.000Z,100650
2018-07-19T07:23:52.000Z,100653
2018-07-19T07:25:36.000Z,100651
2018-07-19T07:26:52.000Z,100651
2018-07-19T07:28:52.000Z,100650
2018-07-19T07:30:52.000Z,100653
2018-07-19T07:32:36.000Z,100654
2018-07-19T07:33:52.000Z,100652
2018-07-19T07:35:36.000Z,100654
2018-07-19T07:36:52.000Z,100649
2018-07-19T07:38:52.000Z,100649
2018-07-19T07:40:52.000Z,100650
2018-07-19T07:41:52.000Z,100651
2018-07-19T07:43:52.000Z,100650
2018-07-19T07:44:52.000Z,100654
2018-07-19T07:46:36.000Z,100657
2018-07-19T07:47:52.000Z,100658
2018-07-19T07:49:52.000Z,100656
2018-07-19T07:50:52.000Z,100658
2018-07-19T07:51:52.000Z,100659
2018-07-19T07:52:52.000Z,100660
2018-07-19T07:54:52.000Z,100663
2018-07-19T07:56:52.000Z,100666
2018-07-19T07:57:52.000Z,100666
2018-07-19T07:59:52.000Z,100666
2018-07-19T08:01:52.000Z,100661
2018-07-19T08:03:52.000Z,100661
2018-07-19T08:05:52.000Z,100662
2018-07-19T08:07:52.000Z,100660
2018-07-19T08:09:52.000Z,100655
2018-07-19T08:11:52.000Z,100655
2018-07-19T08:12:52.000Z,100661
2018-07-19T08:14:52.000Z,100658
2018-07-19T08:15:52.000Z,100658
2018-07-19T08:16:52.000Z,100656
2018-07-19T08:18:52.000Z,100653
2018-07-19T08:20:36.000Z,100657
2018-07-19T08:21:52.000Z,100657
2018-07-19T08:23:52.000Z,100656
2018-07-19T08:25:36.000Z,100648
2018-07-19T08:26:52.000Z,100652
2018-07-19T08:27:52.000Z,100651
2018-07-19T08:29:52.000Z,100650
2018-07-19T08:30:52.000Z,100646
2018-07-19T08:32:52.000Z,100646
2018-07-19T08:34:52.000Z,100645
2018-07-19T08:36:52.000Z,100648
2018-07-19T08:38:36.000Z,100647
2018-07-19T08:39:52.000Z,100643
2018-07-19T08:41:36.000Z,100645
2018-07-19T08:42:52.000Z,100641
2018-07-19T08:44:52.000Z,100640
2018-07-19T08:46:36.000Z,100636
2018-07-19T08:47:52.000Z,100643
2018-07-19T08:48:52.000Z,100638
2018-07-19T08:50:52.000Z,100634
2018-07-19T08:51:52.000Z,100637
2018-07-19T08:53:52.000Z,100635
2018-07-19T08:55:52.000Z,100632
2018-07-19T08:56:52.000Z,100631
2018-07-19T08:58:52.000Z,100630
2018-07-19T09:00:36.000Z,100631
2018-07-19T09:01:52.000Z,100635
2018-07-19T09:03:52.000Z,100639
2018-07-19T09:05:52.000Z,100641
2018-07-19T09:07:52.000Z,100639
2018-07-19T09:09:21.000Z,100625
2018-07-19T09:10:52.000Z,100631
2018-07-19T09:12:52.000Z,100631
2018-07-19T09:14:52.000Z,100632
2018-07-19T09:16:52.000Z,100633
2018-07-19T09:18:52.000Z,100633
2018-07-19T09:20:36.000Z,100630
2018-07-19T09:21:52.000Z,100629
2018-07-19T09:23:52.000Z,100628
2018-07-19T09:25:52.000Z,100625
2018-07-19T09:26:52.000Z,100626
2018-07-19T09:28:52.000Z,100624
2018-07-19T09:30:52.000Z,100614
2018-07-19T09:32:52.000Z,100616
2018-07-19T09:34:36.000Z,100619
2018-07-19T09:35:52.000Z,100618
2018-07-19T09:37:52.000Z,100616
2018-07-19T09:38:52.000Z,100618
2018-07-19T09:40:36.000Z,100614
2018-07-19T09:41:52.000Z,100619
2018-07-19T09:43:21.000Z,100611
2018-07-19T09:44:52.000Z,100611
2018-07-19T09:46:52.000Z,100612
2018-07-19T09:47:52.000Z,100614
2018-07-19T09:48:52.000Z,100616
2018-07-19T09:50:52.000Z,100608
2018-07-19T09:51:52.000Z,100611
2018-07-19T09:53:52.000Z,100611
2018-07-19T09:55:52.000Z,100607
2018-07-19T09:56:52.000Z,100607
2018-07-19T09:58:52.000Z,100611
2018-07-19T10:00:52.000Z,100605
2018-07-19T10:01:52.000Z,100602
2018-07-19T10:02:52.000Z,100597
2018-07-19T10:03:52.000Z,100603
2018-07-19T10:05:36.000Z,100600
2018-07-19T10:06:52.000Z,100598
2018-07-19T10:07:52.000Z,100597
2018-07-19T10:09:52.000Z,100599
2018-07-19T10:11:52.000Z,100597
2018-07-19T10:12:52.000Z,100597
2018-07-19T10:13:52.000Z,100601
2018-07-19T10:15:52.000Z,100596
2018-07-19T10:16:52.000Z,100598
2018-07-19T10:17:52.000Z,100603
2018-07-19T10:19:36.000Z,100601
2018-07-19T10:20:52.000Z,100599
2018-07-19T10:22:36.000Z,100591
2018-07-19T10:23:52.000Z,100594
2018-07-19T10:25:52.000Z,100596
2018-07-19T10:27:52.000Z,100598
2018-07-19T10:28:52.000Z,100596
2018-07-19T10:30:52.000Z,100593
2018-07-19T10:32:52.000Z,100595
2018-07-19T10:34:37.000Z,100590
2018-07-19T10:35:52.000Z,100596
2018-07-19T10:37:52.000Z,100596
2018-07-19T10:39:52.000Z,100585
2018-07-19T10:40:52.000Z,100585
2018-07-19T10:41:52.000Z,100589
2018-07-19T10:43:52.000Z,100592
2018-07-19T10:44:52.000Z,100580
2018-07-19T10:46:37.000Z,100586
2018-07-19T10:47:52.000Z,100589
2018-07-19T10:48:52.000Z,100587
2018-07-19T10:50:52.000Z,100582
2018-07-19T10:51:52.000Z,100581
2018-07-19T10:53:52.000Z,100578
2018-07-19T10:54:52.000Z,100577
2018-07-19T10:56:52.000Z,100579
2018-07-19T10:58:52.000Z,100581
2018-07-19T11:00:52.000Z,100583
2018-07-19T11:02:52.000Z,100586
2018-07-19T11:03:52.000Z,100582
2018-07-19T11:05:52.000Z,100582
2018-07-19T11:07:52.000Z,100578
2018-07-19T11:08:52.000Z,100580
2018-07-19T11:09:52.000Z,100570
2018-07-19T11:11:52.000Z,100576
2018-07-19T11:12:52.000Z,100572
2018-07-19T11:14:52.000Z,100571
2018-07-19T11:16:52.000Z,100573
2018-07-19T11:18:52.000Z,100571
2018-07-19T11:20:37.000Z,100572
2018-07-19T11:21:52.000Z,100563
2018-07-19T11:23:52.000Z,100568
2018-07-19T11:25:52.000Z,100572
2018-07-19T11:27:52.000Z,100568
2018-07-19T11:28:52.000Z,100564
2018-07-19T11:30:52.000Z,100564
2018-07-19T11:32:37.000Z,100567
2018-07-19T11:33:52.000Z,100570
2018-07-19T11:35:52.000Z,100562
2018-07-19T11:37:52.000Z,100562
2018-07-19T11:39:37.000Z,100563
2018-07-19T11:40:52.000Z,100559
2018-07-19T11:42:52.000Z,100559
2018-07-19T11:44:52.000Z,100555
2018-07-19T11:45:52.000Z,100553
2018-07-19T11:47:52.000Z,100553
2018-07-19T11:48:52.000Z,100552
2018-07-19T11:49:52.000Z,100552
2018-07-19T11:51:52.000Z,100548
2018-07-19T11:53:52.000Z,100550
2018-07-19T11:55:52.000Z,100551
2018-07-19T11:57:52.000Z,100547
2018-07-19T11:59:52.000Z,100543
2018-07-19T12:01:52.000Z,100547
2018-07-19T12:03:52.000Z,100538
2018-07-19T12:05:52.000Z,100538
2018-07-19T12:07:22.000Z,100537
2018-07-19T12:08:52.000Z,100537
2018-07-19T12:09:52.000Z,100539
2018-07-19T12:10:52.000Z,100536
2018-07-19T12:12:52.000Z,100531
2018-07-19T12:13:52.000Z,100535
2018-07-19T12:15:52.000Z,100535
2018-07-19T12:17:37.000Z,100533
2018-07-19T12:18:52.000Z,100529
2018-07-19T12:19:52.000Z,100528
2018-07-19T12:21:52.000Z,100527
2018-07-19T12:22:52.000Z,100527
2018-07-19T12:24:52.000Z,100525
2018-07-19T12:26:52.000Z,100520
2018-07-19T12:27:52.000Z,100521
2018-07-19T12:29:52.000Z,100526
2018-07-19T12:30:52.000Z,100524
2018-07-19T12:32:52.000Z,100531
2018-07-19T12:34:52.000Z,100526
2018-07-19T12:35:52.000Z,100524
2018-07-19T12:37:52.000Z,100517
2018-07-19T12:39:52.000Z,100514
2018-07-19T12:41:51.000Z,100511
2018-07-19T12:42:52.000Z,100514
2018-07-19T12:44:51.000Z,100516
2018-07-19T12:45:52.000Z,100507
2018-07-19T12:47:52.000Z,100515
2018-07-19T12:49:52.000Z,100512
2018-07-19T12:51:36.000Z,100508
2018-07-19T12:52:52.000Z,100513
2018-07-19T12:54:52.000Z,100509
2018-07-19T12:56:52.000Z,100506
2018-07-19T12:57:52.000Z,100508
2018-07-19T12:59:21.000Z,100513
2018-07-19T13:00:52.000Z,100512
2018-07-19T13:02:36.000Z,100506
2018-07-19T13:03:52.000Z,100506
2018-07-19T13:05:51.000Z,100512
2018-07-19T13:06:52.000Z,100505
2018-07-19T13:08:52.000Z,100506
2018-07-19T13:10:51.000Z,100500
2018-07-19T13:12:52.000Z,100510
2018-07-19T13:14:52.000Z,100504
2018-07-19T13:16:21.000Z,100504
2018-07-19T13:17:52.000Z,100500
2018-07-19T13:19:52.000Z,100504
2018-07-19T13:21:52.000Z,100506
2018-07-19T13:23:36.000Z,100507
2018-07-19T13:24:52.000Z,100505
2018-07-19T13:26:52.000Z,100501
2018-07-19T13:27:52.000Z,100497
2018-07-19T13:28:52.000Z,100501
2018-07-19T13:30:52.000Z,100496
2018-07-19T13:32:52.000Z,100491
2018-07-19T13:34:36.000Z,100489
2018-07-19T13:35:52.000Z,100493
2018-07-19T13:37:51.000Z,100491
2018-07-19T13:38:52.000Z,100490
2018-07-19T13:40:52.000Z,100491
2018-07-19T13:41:52.000Z,100492
2018-07-19T13:43:37.000Z,100494
2018-07-19T13:44:52.000Z,100486
2018-07-19T13:46:52.000Z,100484
2018-07-19T13:48:52.000Z,100489
2018-07-19T13:49:52.000Z,100496
2018-07-19T13:51:52.000Z,100490
2018-07-19T13:52:52.000Z,100485
2018-07-19T13:54:52.000Z,100490
2018-07-19T13:56:52.000Z,100492
2018-07-19T13:58:21.000Z,100490
2018-07-19T13:59:52.000Z,100489
2018-07-19T14:01:52.000Z,100484
2018-07-19T14:02:52.000Z,100485
2018-07-19T14:03:52.000Z,100486
2018-07-19T14:05:37.000Z,100482
2018-07-19T14:06:52.000Z,100486
2018-07-19T14:08:52.000Z,100484
2018-07-19T14:10:52.000Z,100479
2018-07-19T14:11:52.000Z,100479
2018-07-19T14:12:52.000Z,100479
2018-07-19T14:14:52.000Z,100473
2018-07-19T14:16:52.000Z,100470
2018-07-19T14:18:52.000Z,100471
2018-07-19T14:20:52.000Z,100471
2018-07-19T14:22:52.000Z,100470
2018-07-19T14:23:52.000Z,100469
2018-07-19T14:25:37.000Z,100463
2018-07-19T14:26:52.000Z,100460
2018-07-19T14:28:37.000Z,100468
2018-07-19T14:29:52.000Z,100465
2018-07-19T14:31:37.000Z,100464
2018-07-19T14:32:52.000Z,100471
2018-07-19T14:34:37.000Z,100466
2018-07-19T14:35:52.000Z,100463
2018-07-19T14:37:37.000Z,100461
2018-07-19T14:38:52.000Z,100464
2018-07-19T14:40:52.000Z,100460
2018-07-19T14:42:52.000Z,100459
2018-07-19T14:44:52.000Z,100466
2018-07-19T14:45:52.000Z,100457
2018-07-19T14:46:52.000Z,100463
2018-07-19T14:48:52.000Z,100461
2018-07-19T14:49:52.000Z,100459
2018-07-19T14:51:52.000Z,100460
2018-07-19T14:52:52.000Z,100453
2018-07-19T14:54:52.000Z,100453
2018-07-19T14:55:52.000Z,100452
2018-07-19T14:57:52.000Z,100455
2018-07-19T14:58:52.000Z,100453
2018-07-19T15:00:52.000Z,100454
2018-07-19T15:02:52.000Z,100444
2018-07-19T15:04:52.000Z,100440
2018-07-19T15:05:52.000Z,100443
2018-07-19T15:07:52.000Z,100440
2018-07-19T15:09:52.000Z,100441
2018-07-19T15:11:52.000Z,100437
2018-07-19T15:13:52.000Z,100436
2018-07-19T15:14:52.000Z,100436
2018-07-19T15:16:52.000Z,100438
2018-07-19T15:17:52.000Z,100437
2018-07-19T15:19:52.000Z,100439
2018-07-19T15:21:52.000Z,100429
2018-07-19T15:22:52.000Z,100437
2018-07-19T15:24:52.000Z,100432
2018-07-19T15:25:52.000Z,100428
2018-07-19T15:27:52.000Z,100425
2018-07-19T15:29:37.000Z,100423
2018-07-19T15:30:52.000Z,100426
2018-07-19T15:31:52.000Z,100424
2018-07-19T15:33:52.000Z,100423
2018-07-19T15:35:52.000Z,100422
2018-07-19T15:37:37.000Z,100425
2018-07-19T15:38:52.000Z,100424
2018-07-19T15:40:52.000Z,100424
2018-07-19T15:42:52.000Z,100418
2018-07-19T15:44:52.000Z,100416
2018-07-19T15:46:52.000Z,100416
2018-07-19T15:48:52.000Z,100421
2018-07-19T15:50:52.000Z,100411
2018-07-19T15:52:52.000Z,100412
2018-07-19T15:54:52.000Z,100406
2018-07-19T15:55:52.000Z,100409
2018-07-19T15:57:52.000Z,100413
2018-07-19T15:59:37.000Z,100407
2018-07-19T16:00:52.000Z,100409
2018-07-19T16:02:52.000Z,100406
2018-07-19T16:04:52.000Z,100406
2018-07-19T16:06:37.000Z,100404
2018-07-19T16:07:52.000Z,100400
2018-07-19T16:08:52.000Z,100402
2018-07-19T16:10:52.000Z,100397
2018-07-19T16:11:52.000Z,100391
2018-07-19T16:13:52.000Z,100389
2018-07-19T16:15:52.000Z,100387
2018-07-19T16:17:52.000Z,100392
2018-07-19T16:19:52.000Z,100390
2018-07-19T16:21:52.000Z,100380
2018-07-19T16:22:52.000Z,100387
2018-07-19T16:24:52.000Z,100379
2018-07-19T16:25:52.000Z,100378
2018-07-19T16:26:52.000Z,100375
2018-07-19T16:28:52.000Z,100378
2018-07-19T16:30:52.000Z,100375
2018-07-19T16:31:52.000Z,100371
2018-07-19T16:32:52.000Z,100374
2018-07-19T16:33:52.000Z,100368
2018-07-19T16:35:52.000Z,100373
2018-07-19T16:36:52.000Z,100370
2018-07-19T16:38:52.000Z,100364
2018-07-19T16:40:52.000Z,100364
2018-07-19T16:41:52.000Z,100362
2018-07-19T16:43:52.000Z,100360
2018-07-19T16:45:52.000Z,100357
2018-07-19T16:46:52.000Z,100356
2018-07-19T16:48:52.000Z,100361
2018-07-19T16:50:37.000Z,100359
2018-07-19T16:51:52.000Z,100356
2018-07-19T16:53:52.000Z,100349
2018-07-19T16:54:52.000Z,100353
2018-07-19T16:56:52.000Z,100360
2018-07-19T16:58:52.000Z,100352
2018-07-19T16:59:52.000Z,100350
2018-07-19T17:01:52.000Z,100349
2018-07-19T17:03:52.000Z,100355
2018-07-19T17:05:52.000Z,100354
2018-07-19T17:07:52.000Z,100353
2018-07-19T17:08:52.000Z,100354
2018-07-19T17:10:52.000Z,100353
2018-07-19T17:12:37.000Z,100350
2018-07-19T17:13:52.000Z,100348
2018-07-19T17:14:52.000Z,100351
2018-07-19T17:16:52.000Z,100354
2018-07-19T17:18:52.000Z,100354
2018-07-19T17:19:52.000Z,100351
2018-07-19T17:21:52.000Z,100349
2018-07-19T17:22:52.000Z,100346
2018-07-19T17:23:52.000Z,100353
2018-07-19T17:24:52.000Z,100352
2018-07-19T17:26:52.000Z,100340
2018-07-19T17:28:52.000Z,100350
2018-07-19T17:30:52.000Z,100349
2018-07-19T17:31:52.000Z,100346
2018-07-19T17:33:52.000Z,100338
2018-07-19T17:35:52.000Z,100345
2018-07-19T17:37:52.000Z,100349
2018-07-19T17:39:52.000Z,100344
2018-07-19T17:40:52.000Z,100345
2018-07-19T17:42:52.000Z,100345
2018-07-19T17:44:37.000Z,100350
2018-07-19T17:45:52.000Z,100347
2018-07-19T17:47:52.000Z,100344
2018-07-19T17:49:52.000Z,100346
2018-07-19T17:50:52.000Z,100342
2018-07-19T17:52:52.000Z,100349
2018-07-19T17:54:52.000Z,100348
2018-07-19T17:55:52.000Z,100345
2018-07-19T17:57:52.000Z,100344
2018-07-19T17:59:52.000Z,100341
2018-07-19T18:01:52.000Z,100337
2018-07-19T18:03:52.000Z,100339
2018-07-19T18:05:52.000Z,100336
2018-07-19T18:07:37.000Z,100334
2018-07-19T18:08:52.000Z,100333
2018-07-19T18:10:52.000Z,100329
2018-07-19T18:11:52.000Z,100330
2018-07-19T18:13:52.000Z,100327
2018-07-19T18:15:52.000Z,100330
2018-07-19T18:16:52.000Z,100331
2018-07-19T18:18:52.000Z,100326
2018-07-19T18:20:37.000Z,100322
2018-07-19T18:21:52.000Z,100327
2018-07-19T18:23:52.000Z,100321
2018-07-19T18:25:52.000Z,100325
2018-07-19T18:27:52.000Z,100326
2018-07-19T18:28:52.000Z,100327
2018-07-19T18:30:52.000Z,100331
2018-07-19T18:32:52.000Z,100327
2018-07-19T18:34:52.000Z,100329
2018-07-19T18:35:52.000Z,100329
2018-07-19T18:36:52.000Z,100326
2018-07-19T18:37:52.000Z,100330
2018-07-19T18:39:52.000Z,100330
2018-07-19T18:40:52.000Z,100321
2018-07-19T18:42:52.000Z,100330
2018-07-19T18:44:52.000Z,100328
2018-07-19T18:46:52.000Z,100326
2018-07-19T18:48:52.000Z,100325
2018-07-19T18:50:52.000Z,100324
2018-07-19T18:52:52.000Z,100322
2018-07-19T18:53:52.000Z,100321
2018-07-19T18:55:52.000Z,100317
2018-07-19T18:57:37.000Z,100319
2018-07-19T18:58:52.000Z,100321
2018-07-19T18:59:52.000Z,100321
2018-07-19T19:01:37.000Z,100320
2018-07-19T19:02:52.000Z,100320
2018-07-19T19:03:52.000Z,100321
2018-07-19T19:05:37.000Z,100320
2018-07-19T19:06:52.000Z,100318
2018-07-19T19:08:52.000Z,100322
2018-07-19T19:10:52.000Z,100330
2018-07-19T19:12:52.000Z,100322
2018-07-19T19:14:21.000Z,100318
2018-07-19T19:15:52.000Z,100325
2018-07-19T19:17:37.000Z,100321
2018-07-19T19:18:52.000Z,100323
2018-07-19T19:19:52.000Z,100326
2018-07-19T19:21:52.000Z,100327
2018-07-19T19:23:52.000Z,100319
2018-07-19T19:25:52.000Z,100331
2018-07-19T19:27:52.000Z,100329
2018-07-19T19:28:52.000Z,100333
2018-07-19T19:29:52.000Z,100333
2018-07-19T19:31:52.000Z,100335
2018-07-19T19:32:52.000Z,100333
2018-07-19T19:34:52.000Z,100330
2018-07-19T19:36:52.000Z,100337
2018-07-19T19:38:52.000Z,100339
2018-07-19T19:40:52.000Z,100331
2018-07-19T19:42:37.000Z,100339
2018-07-19T19:43:52.000Z,100337
2018-07-19T19:45:52.000Z,100334
2018-07-19T19:47:52.000Z,100339
2018-07-19T19:49:52.000Z,100339
2018-07-19T19:51:37.000Z,100341
2018-07-19T19:52:52.000Z,100344
2018-07-19T19:54:37.000Z,100339
2018-07-19T19:55:52.000Z,100341
2018-07-19T19:57:52.000Z,100342
2018-07-19T19:59:52.000Z,100345
2018-07-19T20:00:52.000Z,100339
2018-07-19T20:02:52.000Z,100347
2018-07-19T20:04:52.000Z,100346
2018-07-19T20:06:22.000Z,100345
2018-07-19T20:07:52.000Z,100345
2018-07-19T20:09:52.000Z,100343
2018-07-19T20:11:52.000Z,100338
2018-07-19T20:13:52.000Z,100342
2018-07-19T20:15:52.000Z,100350
2018-07-19T20:16:52.000Z,100341
2018-07-19T20:18:52.000Z,100345